Time;durP1;ratioP1;P1;durP2;ratioP2;P2;SDS_P1;SDS_P2;PMS_P1;PMS_P2;Temp;Humidity;BMP_temperature;BMP_pressure;BME280_temperature;BME280_humidity;BME280_pressure;Samples;Min_cycle;Max_cycle;Signal;HPM_P1;HPM_P2
2021/04/26 00:01:53;;;;;;;10.65;3.00;;;;;;;3.70;100.00;102536.41;3570304;40;20049;-60
2021/04/26 00:04:19;;;;;;;9.00;2.53;;;;;;;3.71;100.00;102536.38;3570545;40;20328;-58
2021/04/26 00:06:46;;;;;;;14.80;3.28;;;;;;;3.69;100.00;102532.88;3571428;40;20041;-58
2021/04/26 00:09:12;;;;;;;7.20;2.70;;;;;;;3.68;100.00;102542.66;3571879;40;20049;-60
2021/04/26 00:11:38;;;;;;;10.60;2.97;;;;;;;3.70;100.00;102531.09;3572311;40;20114;-62
2021/04/26 00:14:04;;;;;;;11.93;2.90;;;;;;;3.65;100.00;102532.09;3570441;40;20041;-59
2021/04/26 00:16:31;;;;;;;9.18;2.83;;;;;;;3.62;100.00;102529.53;3571097;40;20053;-59
2021/04/26 00:18:57;;;;;;;8.05;2.55;;;;;;;3.58;100.00;102527.00;3570535;40;20040;-58
2021/04/26 00:21:22;;;;;;;6.88;2.70;;;;;;;3.51;100.00;102524.56;3569654;40;20058;-58
2021/04/26 00:23:48;;;;;;;6.70;2.72;;;;;;;3.48;100.00;102514.00;3571376;40;20048;-58
2021/04/26 00:26:14;;;;;;;13.55;3.03;;;;;;;3.50;100.00;102506.84;3570919;40;20525;-59
2021/04/26 00:28:40;;;;;;;8.63;3.03;;;;;;;3.46;100.00;102510.53;3570291;40;20045;-59
2021/04/26 00:31:06;;;;;;;8.43;2.88;;;;;;;3.43;100.00;102510.63;3570281;40;20049;-59
2021/04/26 00:33:33;;;;;;;12.30;3.08;;;;;;;3.39;100.00;102513.44;3569958;40;20057;-59
2021/04/26 00:35:59;;;;;;;9.43;2.95;;;;;;;3.31;100.00;102519.00;3571552;40;20061;-59
2021/04/26 00:38:25;;;;;;;9.35;2.83;;;;;;;3.28;100.00;102519.09;3570003;40;20053;-60
2021/04/26 00:40:51;;;;;;;11.57;3.35;;;;;;;3.32;100.00;102516.28;3570974;40;20099;-58
2021/04/26 00:43:17;;;;;;;10.52;2.63;;;;;;;3.33;100.00;102515.38;3570946;40;20434;-58
2021/04/26 00:45:43;;;;;;;8.35;2.85;;;;;;;3.28;100.00;102505.78;3570671;40;20043;-59
2021/04/26 00:48:10;;;;;;;8.48;2.60;;;;;;;3.19;100.00;102511.41;3570574;40;20053;-61
2021/04/26 00:50:38;;;;;;;11.75;3.28;;;;;;;3.19;100.00;102501.63;3571126;40;20308;-62
2021/04/26 00:53:05;;;;;;;8.55;2.88;;;;;;;3.18;100.00;102499.91;3570228;40;20061;-61
2021/04/26 00:55:34;;;;;;;8.85;2.95;;;;;;;3.14;100.00;102501.75;3570953;40;20065;-60
2021/04/26 00:58:00;;;;;;;6.18;3.08;;;;;;;3.12;100.00;102500.94;3570541;40;20045;-59
2021/04/26 01:00:27;;;;;;;7.57;2.63;;;;;;;3.03;100.00;102498.56;3569787;40;20029;-60
2021/04/26 01:02:53;;;;;;;9.23;3.10;;;;;;;3.03;100.00;102489.72;3570867;40;20048;-61
2021/04/26 01:05:22;;;;;;;5.72;2.72;;;;;;;3.11;100.00;102483.25;3570479;40;20337;-60
2021/04/26 01:07:49;;;;;;;10.10;2.85;;;;;;;3.18;100.00;102480.38;3571025;40;20155;-59
2021/04/26 01:10:18;;;;;;;7.20;3.10;;;;;;;3.06;100.00;102471.88;3570139;40;20054;-59
2021/04/26 01:12:58;;;;;;;7.88;2.92;;;;;;;3.02;100.00;102472.91;3570967;40;20486;-60
2021/04/26 01:15:30;;;;;;;5.88;2.63;;;;;;;2.98;100.00;102471.25;3570445;40;20045;-60
2021/04/26 01:18:00;;;;;;;8.13;2.53;;;;;;;2.98;100.00;102473.91;3571321;40;20075;-59
2021/04/26 01:20:59;;;;;;;5.88;2.65;;;;;;;2.95;100.00;102472.19;3569830;40;20065;-61
2021/04/26 01:24:07;;;;;;;10.73;3.23;;;;;;;2.96;100.00;102473.94;3570167;40;20049;-60
2021/04/26 01:26:40;;;;;;;10.07;2.95;;;;;;;3.05;100.00;102466.59;3569434;40;20267;-59
2021/04/26 01:29:15;;;;;;;11.57;3.55;;;;;;;3.01;100.00;102467.63;3570202;40;20049;-60
2021/04/26 01:31:56;;;;;;;9.75;2.83;;;;;;;3.05;100.00;102464.81;3570275;40;20319;-58
2021/04/26 01:34:27;;;;;;;11.15;3.28;;;;;;;2.97;100.00;102466.84;3570860;40;20067;-62
2021/04/26 01:36:55;;;;;;;8.88;2.78;;;;;;;2.93;100.00;102463.41;3570910;40;20390;-59
2021/04/26 01:39:22;;;;;;;7.22;3.00;;;;;;;2.94;100.00;102456.28;3570157;40;20049;-59
2021/04/26 01:41:49;;;;;;;6.25;3.25;;;;;;;2.93;100.00;102462.50;3571152;40;20042;-58
2021/04/26 01:44:18;;;;;;;9.57;3.22;;;;;;;2.95;100.00;102468.69;3570454;40;20043;-58
2021/04/26 01:46:45;;;;;;;7.03;2.92;;;;;;;2.99;100.00;102459.69;3570718;40;20451;-59
2021/04/26 01:49:12;;;;;;;6.63;2.88;;;;;;;2.87;100.00;102460.06;3570176;40;20052;-60
2021/04/26 01:51:41;;;;;;;8.07;2.90;;;;;;;2.79;100.00;102461.16;3570236;40;20380;-60
2021/04/26 01:54:08;;;;;;;10.48;3.10;;;;;;;2.77;100.00;102454.16;3570774;40;20059;-60
2021/04/26 01:56:35;;;;;;;9.13;2.97;;;;;;;2.76;100.00;102455.06;3570322;40;20120;-59
2021/04/26 01:59:03;;;;;;;9.75;3.25;;;;;;;2.70;100.00;102455.25;3569497;40;20056;-58
2021/04/26 02:01:29;;;;;;;7.05;3.25;;;;;;;2.89;100.00;102450.25;3570732;40;20064;-59
2021/04/26 02:03:57;;;;;;;8.13;3.20;;;;;;;2.80;100.00;102449.59;3569821;40;20142;-59
2021/04/26 02:06:23;;;;;;;7.05;3.17;;;;;;;2.66;100.00;102449.16;3570184;40;20056;-59
2021/04/26 02:08:51;;;;;;;9.50;3.10;;;;;;;2.64;100.00;102445.66;3570798;40;20051;-59
2021/04/26 02:11:18;;;;;;;11.23;3.13;;;;;;;2.72;100.00;102448.09;3569625;40;20051;-58
2021/04/26 02:13:45;;;;;;;8.02;2.85;;;;;;;2.70;100.00;102445.47;3570421;40;20447;-58
2021/04/26 02:16:11;;;;;;;7.03;2.72;;;;;;;2.72;100.00;102438.31;3569370;40;20037;-59
2021/04/26 02:18:38;;;;;;;10.27;2.92;;;;;;;2.67;100.00;102429.63;3569790;40;20073;-60
2021/04/26 02:21:05;;;;;;;8.98;3.30;;;;;;;2.66;100.00;102432.34;3569847;40;20143;-59
2021/04/26 02:23:31;;;;;;;5.90;3.03;;;;;;;2.58;100.00;102429.91;3569761;40;20496;-58
2021/04/26 02:25:58;;;;;;;8.70;3.20;;;;;;;2.60;100.00;102434.25;3570677;40;20132;-61
2021/04/26 02:28:25;;;;;;;13.88;3.22;;;;;;;2.57;100.00;102433.47;3569866;40;20065;-58
2021/04/26 02:30:54;;;;;;;9.90;3.03;;;;;;;2.51;100.00;102428.34;3571045;40;20050;-58
2021/04/26 02:33:25;;;;;;;12.80;3.63;;;;;;;2.39;100.00;102430.44;3569537;40;20045;-60
2021/04/26 02:35:54;;;;;;;11.70;4.32;;;;;;;2.36;100.00;102427.88;3570204;40;20077;-58
2021/04/26 02:38:25;;;;;;;7.15;3.15;;;;;;;2.42;100.00;102419.72;3570208;40;20107;-59
2021/04/26 02:40:56;;;;;;;9.52;3.78;;;;;;;2.41;100.00;102428.59;3570373;40;20049;-58
2021/04/26 02:43:24;;;;;;;7.32;2.72;;;;;;;2.35;100.00;102412.84;3570155;40;20063;-61
2021/04/26 02:45:53;;;;;;;8.02;3.28;;;;;;;2.29;100.00;102421.00;3570498;40;20154;-59
2021/04/26 02:48:21;;;;;;;6.95;3.17;;;;;;;2.28;100.00;102413.94;3569524;40;20041;-60
2021/04/26 02:50:47;;;;;;;7.10;2.90;;;;;;;2.25;100.00;102414.03;3568831;40;20092;-61
2021/04/26 02:53:15;;;;;;;7.93;3.53;;;;;;;2.25;100.00;102406.03;3570385;40;20059;-59
2021/04/26 02:55:45;;;;;;;10.25;3.47;;;;;;;2.32;100.00;102401.44;3570099;40;20598;-60
2021/04/26 02:58:11;;;;;;;6.63;3.03;;;;;;;2.29;100.00;102402.41;3570077;40;20073;-59
2021/04/26 03:00:39;;;;;;;8.65;3.22;;;;;;;2.36;100.00;102409.28;3570448;40;20044;-59
2021/04/26 03:03:06;;;;;;;10.32;3.35;;;;;;;2.39;100.00;102398.56;3571515;40;20048;-57
2021/04/26 03:05:32;;;;;;;7.78;3.13;;;;;;;2.43;100.00;102402.00;3570859;40;20053;-59
2021/04/26 03:07:58;;;;;;;6.65;3.30;;;;;;;2.39;100.00;102392.38;3571257;40;20053;-60
2021/04/26 03:10:25;;;;;;;10.98;3.53;;;;;;;2.33;100.00;102392.56;3571625;40;20061;-60
2021/04/26 03:12:53;;;;;;;9.15;3.33;;;;;;;2.27;100.00;102388.28;3571980;40;20053;-59
2021/04/26 03:15:22;;;;;;;10.38;3.47;;;;;;;2.12;100.00;102386.97;3571693;40;20115;-60
2021/04/26 03:17:50;;;;;;;11.15;2.97;;;;;;;2.05;100.00;102390.69;3571715;40;20092;-59
2021/04/26 03:20:18;;;;;;;10.25;3.42;;;;;;;2.08;100.00;102382.63;3569995;40;20322;-59
2021/04/26 03:22:45;;;;;;;4.77;2.70;;;;;;;1.98;100.00;102387.31;3570511;40;20390;-59
2021/04/26 03:25:13;;;;;;;6.57;3.00;;;;;;;1.98;100.00;102382.03;3571586;40;20056;-59
2021/04/26 03:27:41;;;;;;;13.55;3.17;;;;;;;2.02;100.00;102381.03;3571382;40;20384;-59
2021/04/26 03:30:09;;;;;;;10.15;3.03;;;;;;;2.04;100.00;102379.19;3571096;40;20080;-61
2021/04/26 03:32:36;;;;;;;5.80;2.80;;;;;;;2.02;100.00;102373.06;3571878;40;20055;-59
2021/04/26 03:35:05;;;;;;;9.35;3.25;;;;;;;2.02;100.00;102373.06;3571612;40;20037;-64
2021/04/26 03:37:32;;;;;;;10.03;3.27;;;;;;;2.03;100.00;102368.59;3570187;40;20408;-61
2021/04/26 03:39:59;;;;;;;11.57;3.72;;;;;;;2.07;100.00;102368.47;3570170;40;20405;-58
2021/04/26 03:42:27;;;;;;;7.45;3.15;;;;;;;2.03;100.00;102364.19;3572047;40;20442;-59
2021/04/26 03:44:53;;;;;;;6.82;3.47;;;;;;;2.02;100.00;102365.09;3572113;40;20050;-58
2021/04/26 03:47:19;;;;;;;11.23;3.25;;;;;;;2.04;100.00;102365.91;3571271;40;20049;-59
2021/04/26 03:49:45;;;;;;;11.30;3.05;;;;;;;2.01;100.00;102362.47;3571041;40;20053;-59
2021/04/26 03:52:11;;;;;;;7.03;2.80;;;;;;;2.05;100.00;102357.03;3570536;40;20056;-62
2021/04/26 03:54:38;;;;;;;10.52;3.63;;;;;;;2.00;100.00;102356.28;3570818;40;20118;-58
2021/04/26 03:57:05;;;;;;;6.10;3.15;;;;;;;1.91;100.00;102359.22;3571152;40;20048;-58
2021/04/26 03:59:31;;;;;;;6.00;3.15;;;;;;;1.78;100.00;102358.66;3571201;40;20056;-59
2021/04/26 04:04:23;;;;;;;7.32;3.40;;;;;;;1.74;100.00;102347.28;3552641;23;20344;-59
2021/04/26 04:06:49;;;;;;;6.85;3.28;;;;;;;1.72;100.00;102349.13;3561945;40;20261;-58
2021/04/26 04:09:17;;;;;;;9.35;3.83;;;;;;;1.79;100.00;102347.16;3561412;40;20067;-58
2021/04/26 04:11:43;;;;;;;10.07;3.30;;;;;;;1.83;100.00;102351.47;3561987;40;20053;-59
2021/04/26 04:14:09;;;;;;;8.50;3.45;;;;;;;1.83;100.00;102346.16;3560583;40;20066;-58
2021/04/26 04:16:35;;;;;;;9.35;4.30;;;;;;;1.85;100.00;102338.13;3562277;40;20045;-61
2021/04/26 04:19:01;;;;;;;9.68;4.13;;;;;;;1.94;100.00;102337.88;3562003;40;20058;-59
2021/04/26 04:21:27;;;;;;;11.57;4.28;;;;;;;1.95;100.00;102330.78;3560577;40;20051;-58
2021/04/26 04:23:53;;;;;;;11.57;3.70;;;;;;;1.96;100.00;102329.84;3562429;40;20050;-58
2021/04/26 04:26:20;;;;;;;10.40;4.00;;;;;;;1.97;100.00;102336.91;3561369;40;20061;-60
2021/04/26 04:28:47;;;;;;;12.55;3.70;;;;;;;1.92;100.00;102337.06;3562794;40;20053;-60
2021/04/26 04:31:13;;;;;;;7.10;3.45;;;;;;;2.06;100.00;102334.00;3584824;22;20059;-59
2021/04/26 04:33:39;;;;;;;10.32;3.35;;;;;;;2.08;100.00;102329.53;3579320;40;20280;-60
2021/04/26 04:36:06;;;;;;;10.07;3.80;;;;;;;2.04;100.00;102334.03;3581168;40;20066;-58
2021/04/26 04:38:32;;;;;;;13.38;3.90;;;;;;;2.04;100.00;102327.88;3579542;40;20057;-59
2021/04/26 04:40:59;;;;;;;8.45;3.92;;;;;;;2.17;100.00;102329.25;3582160;40;20065;-61
2021/04/26 04:43:26;;;;;;;8.05;3.80;;;;;;;2.15;100.00;102330.19;3581675;40;20057;-59
2021/04/26 04:45:52;;;;;;;10.30;4.05;;;;;;;2.15;100.00;102327.53;3582194;40;20053;-58
2021/04/26 04:48:18;;;;;;;7.63;3.42;;;;;;;2.17;100.00;102326.59;3581841;40;20044;-58
2021/04/26 04:50:45;;;;;;;9.90;3.40;;;;;;;2.15;100.00;102319.56;3581611;40;20060;-58
2021/04/26 04:53:11;;;;;;;8.30;3.47;;;;;;;2.15;100.00;102325.78;3581539;40;20048;-58
2021/04/26 04:55:37;;;;;;;8.93;3.33;;;;;;;2.15;100.00;102319.56;3581917;40;20045;-59
2021/04/26 04:58:03;;;;;;;5.90;3.13;;;;;;;2.21;100.00;102324.69;3581512;40;20134;-59
2021/04/26 05:00:30;;;;;;;10.02;3.80;;;;;;;2.22;100.00;102322.03;3581116;40;20048;-58
2021/04/26 05:02:56;;;;;;;6.22;3.33;;;;;;;2.23;100.00;102325.53;3581851;40;20052;-61
2021/04/26 05:05:22;;;;;;;8.88;3.38;;;;;;;2.32;100.00;102327.91;3581949;40;20056;-58
2021/04/26 05:07:49;;;;;;;11.30;3.03;;;;;;;2.20;100.00;102325.63;3581233;40;20051;-59
2021/04/26 05:10:15;;;;;;;9.75;3.35;;;;;;;2.30;100.00;102324.44;3581024;40;20495;-59
2021/04/26 05:12:41;;;;;;;9.82;3.75;;;;;;;2.31;100.00;102328.81;3581745;40;20043;-59
2021/04/26 05:15:08;;;;;;;8.45;3.92;;;;;;;2.45;100.00;102325.75;3581496;40;20430;-58
2021/04/26 05:17:35;;;;;;;11.88;3.60;;;;;;;2.53;100.00;102326.41;3581882;40;20049;-59
2021/04/26 05:20:01;;;;;;;10.10;3.38;;;;;;;2.72;100.00;102323.13;3579982;40;20058;-59
2021/04/26 05:22:27;;;;;;;8.55;3.17;;;;;;;2.70;100.00;102319.66;3580971;40;20302;-59
2021/04/26 05:24:54;;;;;;;6.32;3.45;;;;;;;2.89;100.00;102325.25;3581993;40;20059;-59
2021/04/26 05:27:20;;;;;;;7.53;3.20;;;;;;;2.93;100.00;102322.44;3581081;40;20408;-61
2021/04/26 05:29:46;;;;;;;8.73;3.92;;;;;;;2.98;100.00;102316.97;3580126;40;20052;-59
2021/04/26 05:32:12;;;;;;;7.85;3.30;;;;;;;3.01;100.00;102311.53;3581079;40;20115;-58
2021/04/26 05:34:40;;;;;;;7.35;3.35;;;;;;;3.15;100.00;102319.03;3582024;40;20048;-59
2021/04/26 05:37:06;;;;;;;8.93;3.90;;;;;;;3.24;100.00;102304.56;3581291;40;20037;-59
2021/04/26 05:39:32;;;;;;;7.30;3.50;;;;;;;3.20;100.00;102313.59;3580757;40;20148;-59
2021/04/26 05:41:57;;;;;;;7.20;3.05;;;;;;;3.25;100.00;102306.31;3581358;40;20036;-59
2021/04/26 05:44:23;;;;;;;10.65;3.45;;;;;;;3.30;100.00;102312.34;3581317;40;20105;-59
2021/04/26 05:46:49;;;;;;;6.50;3.10;;;;;;;3.57;100.00;102310.50;3579812;40;20057;-59
2021/04/26 05:49:15;;;;;;;9.40;3.13;;;;;;;3.83;100.00;102312.22;3580870;40;20399;-58
2021/04/26 05:51:42;;;;;;;8.45;3.50;;;;;;;3.84;100.00;102307.75;3581716;40;20037;-61
2021/04/26 05:54:08;;;;;;;5.15;2.85;;;;;;;4.45;100.00;102315.22;3582229;40;20049;-59
2021/04/26 05:56:34;;;;;;;6.85;3.05;;;;;;;4.36;100.00;102310.25;3580763;40;20052;-59
2021/04/26 05:59:00;;;;;;;5.65;2.80;;;;;;;4.45;100.00;102315.22;3581264;40;20145;-59
2021/04/26 06:01:26;;;;;;;14.43;3.35;;;;;;;4.57;100.00;102313.84;3582399;40;20045;-58
2021/04/26 06:03:52;;;;;;;6.38;2.58;;;;;;;4.45;100.00;102314.34;3580988;40;20052;-62
2021/04/26 06:06:18;;;;;;;5.75;2.53;;;;;;;4.45;100.00;102314.34;3580704;40;20056;-60
2021/04/26 06:08:45;;;;;;;8.70;2.67;;;;;;;4.58;100.00;102315.59;3581004;40;20052;-60
2021/04/26 06:11:11;;;;;;;8.13;3.00;;;;;;;4.95;100.00;102318.53;3577322;40;20388;-61
2021/04/26 06:13:37;;;;;;;4.97;2.58;;;;;;;5.00;100.00;102321.91;3578198;40;20084;-60
2021/04/26 06:16:03;;;;;;;8.10;2.45;;;;;;;4.75;100.00;102317.56;3579675;40;20045;-59
2021/04/26 06:18:30;;;;;;;7.38;2.33;;;;;;;4.74;100.00;102307.81;3580256;40;20121;-61
2021/04/26 06:20:56;;;;;;;5.90;2.45;;;;;;;4.88;100.00;102315.28;3581141;40;20081;-61
2021/04/26 06:23:22;;;;;;;4.85;2.17;;;;;;;4.84;100.00;102311.84;3580475;40;20057;-59
2021/04/26 06:25:49;;;;;;;10.23;2.63;;;;;;;4.91;100.00;102312.47;3581558;40;20407;-58
2021/04/26 06:28:16;;;;;;;5.32;2.63;;;;;;;4.96;100.00;102305.16;3580540;40;20328;-58
2021/04/26 06:30:44;;;;;;;6.15;2.35;;;;;;;4.87;100.00;102309.06;3580803;40;20146;-60
2021/04/26 06:33:15;;;;;;;5.55;2.17;;;;;;;4.94;100.00;102312.34;3580941;40;20073;-58
2021/04/26 06:35:41;;;;;;;8.40;2.17;;;;;;;4.96;100.00;102304.28;3581720;40;20056;-58
2021/04/26 06:38:07;;;;;;;4.47;2.00;;;;;;;5.17;100.00;102315.88;3582737;40;20041;-61
2021/04/26 06:40:33;;;;;;;5.50;2.00;;;;;;;5.38;100.00;102312.25;3581592;40;20056;-58
2021/04/26 06:43:00;;;;;;;6.13;2.20;;;;;;;5.34;100.00;102307.13;3583138;40;20055;-60
2021/04/26 06:45:26;;;;;;;5.97;2.28;;;;;;;5.53;100.00;102305.38;3581759;40;20084;-60
2021/04/26 06:47:52;;;;;;;5.95;2.03;;;;;;;5.66;100.00;102304.84;3583232;40;20071;-62
2021/04/26 06:50:18;;;;;;;12.10;2.65;;;;;;;5.65;100.00;102300.44;3581264;40;20060;-59
2021/04/26 06:52:44;;;;;;;4.82;2.05;;;;;;;5.96;100.00;102303.44;3582529;40;20076;-60
2021/04/26 06:55:10;;;;;;;6.50;2.30;;;;;;;6.08;100.00;102290.47;3582077;40;20080;-59
2021/04/26 06:57:38;;;;;;;5.53;1.88;;;;;;;5.98;100.00;102295.41;3583749;40;20044;-61
2021/04/26 07:00:06;;;;;;;5.22;2.20;;;;;;;5.99;100.00;102290.91;3582670;40;20174;-59
2021/04/26 07:02:32;;;;;;;7.37;2.17;;;;;;;6.29;100.00;102299.31;3582208;40;20045;-60
2021/04/26 07:07:42;;;;;;;6.55;2.25;;;;;;;6.10;100.00;102299.31;3599765;23;20050;-59
2021/04/26 07:10:10;;;;;;;10.07;2.22;;;;;;;6.18;100.00;102299.78;3561893;40;20811;-61
2021/04/26 07:12:36;;;;;;;6.32;2.10;;;;;;;6.19;100.00;102295.34;3561750;40;20046;-59
2021/04/26 07:15:03;;;;;;;7.45;1.90;;;;;;;6.31;100.00;102295.59;3560792;40;20060;-59
2021/04/26 07:17:30;;;;;;;7.93;2.40;;;;;;;6.40;100.00;102298.78;3562744;40;20114;-61
2021/04/26 07:19:56;;;;;;;7.18;1.98;;;;;;;6.53;100.00;102294.56;3561142;40;20050;-59
2021/04/26 07:22:22;;;;;;;5.60;2.22;;;;;;;6.56;100.00;102291.75;3560056;40;20033;-59
2021/04/26 07:24:49;;;;;;;6.03;2.05;;;;;;;6.83;100.00;102297.56;3563518;40;20412;-62
2021/04/26 07:27:15;;;;;;;5.00;1.80;;;;;;;7.01;100.00;102297.59;3562207;40;20075;-59
2021/04/26 07:32:12;;;;;;;5.55;2.03;;;;;;;7.06;100.00;102300.03;3557043;23;20395;-59
2021/04/26 07:34:39;;;;;;;4.63;2.17;;;;;;;7.23;100.00;102297.34;3567883;40;20057;-59
2021/04/26 07:37:05;;;;;;;7.63;1.90;;;;;;;7.43;100.00;102295.44;3570792;40;20398;-60
2021/04/26 07:39:31;;;;;;;8.73;2.38;;;;;;;7.56;100.00;102293.84;3572070;40;20111;-59
2021/04/26 07:41:57;;;;;;;4.75;1.50;;;;;;;7.44;100.00;102290.00;3571166;40;20041;-60
2021/04/26 07:44:25;;;;;;;4.78;1.90;;;;;;;7.62;100.00;102292.66;3572447;40;20388;-60
2021/04/26 07:46:52;;;;;;;2.72;1.55;;;;;;;7.61;100.00;102290.94;3571567;40;20052;-59
2021/04/26 07:49:17;;;;;;;4.13;1.60;;;;;;;7.59;100.00;102284.78;3569077;40;20488;-61
2021/04/26 07:51:44;;;;;;;7.05;2.15;;;;;;;7.64;100.00;102286.28;3571142;40;20065;-59
2021/04/26 07:54:11;;;;;;;8.43;2.03;;;;;;;7.82;100.00;102284.41;3569920;40;20061;-58
2021/04/26 07:56:37;;;;;;;5.70;1.90;;;;;;;7.86;100.00;102285.09;3571978;40;20099;-61
2021/04/26 07:59:03;;;;;;;7.00;2.10;;;;;;;7.87;100.00;102278.81;3572246;40;20041;-60
2021/04/26 08:01:29;;;;;;;4.68;1.83;;;;;;;7.87;100.00;102273.44;3572725;40;20055;-59
2021/04/26 08:03:55;;;;;;;6.70;2.00;;;;;;;8.13;100.00;102281.88;3571764;40;20057;-59
2021/04/26 08:06:21;;;;;;;4.75;1.98;;;;;;;8.07;100.00;102275.91;3569864;40;20050;-62
2021/04/26 08:08:48;;;;;;;6.05;2.25;;;;;;;8.19;100.00;102281.53;3569979;40;20052;-60
2021/04/26 08:11:14;;;;;;;5.75;1.90;;;;;;;8.27;100.00;102268.53;3570190;40;20382;-60
2021/04/26 08:13:40;;;;;;;6.18;2.20;;;;;;;8.60;100.00;102270.31;3570328;40;20389;-59
2021/04/26 08:16:06;;;;;;;3.72;1.77;;;;;;;8.52;100.00;102267.19;3569815;40;20037;-62
2021/04/26 08:18:33;;;;;;;4.20;1.80;;;;;;;8.38;100.00;102267.97;3570667;40;20060;-59
2021/04/26 08:20:59;;;;;;;7.10;2.20;;;;;;;8.74;100.00;102272.19;3570941;40;20421;-62
2021/04/26 08:23:25;;;;;;;5.97;2.17;;;;;;;9.30;100.00;102261.69;3569227;40;20045;-60
2021/04/26 08:25:52;;;;;;;5.22;1.67;;;;;;;9.07;100.00;102263.97;3570662;40;20049;-59
2021/04/26 08:28:19;;;;;;;6.90;1.83;;;;;;;9.36;100.00;102258.63;3570589;40;20459;-59
2021/04/26 08:30:45;;;;;;;4.32;1.70;;;;;;;9.36;100.00;102255.09;3566156;40;20570;-62
2021/04/26 08:33:11;;;;;;;5.40;1.90;;;;;;;9.54;100.00;102247.72;3568155;40;20073;-59
2021/04/26 08:35:37;;;;;;;4.07;1.90;;;;;;;9.50;99.70;102238.13;3570174;40;20308;-61
2021/04/26 08:38:03;;;;;;;8.40;1.90;;;;;;;9.18;97.12;102246.34;3570710;40;20045;-61
2021/04/26 08:40:29;;;;;;;3.30;1.50;;;;;;;9.23;94.50;102241.53;3570467;40;20041;-59
2021/04/26 08:43:02;;;;;;;6.07;1.98;;;;;;;9.38;91.36;102229.84;3570585;40;20430;-60
2021/04/26 08:45:28;;;;;;;6.43;2.15;;;;;;;9.27;90.77;102229.66;3570421;40;20048;-59
2021/04/26 08:47:54;;;;;;;5.50;1.50;;;;;;;9.59;83.27;102221.41;3569638;40;20049;-59
2021/04/26 08:50:21;;;;;;;3.85;1.77;;;;;;;9.59;82.28;102221.41;3569819;40;20341;-61
2021/04/26 08:52:47;;;;;;;5.03;1.98;;;;;;;9.75;89.58;102226.69;3571036;40;20037;-59
2021/04/26 08:55:15;;;;;;;5.45;1.73;;;;;;;9.71;84.40;102230.53;3571039;40;20515;-61
2021/04/26 08:57:41;;;;;;;8.20;1.88;;;;;;;9.79;83.99;102228.22;3571662;40;20084;-59
2021/04/26 09:00:09;;;;;;;3.80;1.75;;;;;;;9.78;85.32;102230.03;3568928;40;20048;-62
2021/04/26 09:02:44;;;;;;;6.88;2.00;;;;;;;10.10;82.40;102224.44;3569515;40;20139;-60
2021/04/26 09:05:21;;;;;;;5.55;1.70;;;;;;;10.26;79.44;102226.13;3569453;40;20058;-59
2021/04/26 09:07:49;;;;;;;4.90;1.75;;;;;;;10.34;79.92;102218.44;3570387;40;20065;-60
2021/04/26 09:10:15;;;;;;;3.77;1.80;;;;;;;10.26;79.74;102228.81;3570177;40;20045;-59
2021/04/26 09:12:41;;;;;;;5.60;1.75;;;;;;;10.42;77.77;102224.16;3570400;40;20298;-61
2021/04/26 09:15:09;;;;;;;3.38;1.60;;;;;;;10.56;71.79;102219.72;3569113;40;20154;-61
2021/04/26 09:17:36;;;;;;;4.85;2.17;;;;;;;10.50;68.54;102212.91;3570719;40;20042;-59
2021/04/26 09:20:22;;;;;;;3.90;1.80;;;;;;;10.62;73.05;102222.00;3568670;40;20135;-59
2021/04/26 09:22:49;;;;;;;6.47;1.70;;;;;;;10.57;76.60;102213.34;3568966;40;20045;-59
2021/04/26 09:25:30;;;;;;;5.07;1.98;;;;;;;10.59;71.31;102216.81;3569448;40;20049;-60
2021/04/26 09:27:59;;;;;;;5.18;1.90;;;;;;;10.84;68.32;102208.78;3567266;40;20047;-59
2021/04/26 09:30:53;;;;;;;7.38;2.30;;;;;;;10.97;65.21;102206.13;3568418;40;20059;-62
2021/04/26 09:33:27;;;;;;;5.88;2.20;;;;;;;11.18;65.03;102202.91;3569446;40;20061;-59
2021/04/26 09:36:03;;;;;;;6.30;1.63;;;;;;;11.19;66.15;102197.41;3568952;40;20037;-60
2021/04/26 09:38:31;;;;;;;6.85;2.05;;;;;;;11.11;63.99;102196.22;3569444;40;20137;-59
2021/04/26 09:41:15;;;;;;;7.30;2.50;;;;;;;11.09;60.76;102190.94;3568926;40;20046;-60
2021/04/26 09:43:42;;;;;;;3.60;2.00;;;;;;;11.12;60.73;102182.66;3569319;40;20107;-59
2021/04/26 09:46:10;;;;;;;6.45;2.15;;;;;;;11.15;60.20;102192.34;3569625;40;20427;-60
2021/04/26 09:48:36;;;;;;;4.82;2.08;;;;;;;11.27;59.60;102188.78;3569324;40;20045;-58
2021/04/26 09:51:04;;;;;;;2.85;1.70;;;;;;;11.31;62.73;102187.59;3568993;40;20088;-63
2021/04/26 09:53:32;;;;;;;6.33;2.00;;;;;;;11.34;59.70;102186.53;3569598;40;20041;-62
2021/04/26 09:56:10;;;;;;;5.85;1.98;;;;;;;11.63;57.58;102178.19;3568929;40;20053;-64
2021/04/26 09:58:38;;;;;;;4.65;2.05;;;;;;;11.72;59.91;102174.84;3569020;40;20058;-60
2021/04/26 10:01:04;;;;;;;4.40;2.10;;;;;;;11.82;50.70;102177.72;3568890;40;20065;-62
2021/04/26 10:03:32;;;;;;;5.80;2.17;;;;;;;11.50;53.81;102176.38;3569103;40;20045;-59
2021/04/26 10:05:58;;;;;;;5.75;2.22;;;;;;;11.70;51.31;102171.38;3569810;40;20049;-60
2021/04/26 10:08:25;;;;;;;4.90;2.10;;;;;;;11.24;53.19;102174.69;3568703;40;20093;-60
2021/04/26 10:10:51;;;;;;;5.65;1.95;;;;;;;11.30;53.16;102158.06;3569897;40;20097;-59
2021/04/26 10:13:20;;;;;;;4.80;2.17;;;;;;;11.29;58.93;102169.81;3568084;40;20041;-59
2021/04/26 10:15:47;;;;;;;3.70;1.65;;;;;;;11.55;54.11;102155.31;3571108;40;20056;-60
2021/04/26 10:18:14;;;;;;;4.85;1.90;;;;;;;11.49;57.96;102163.88;3569096;40;20053;-59
2021/04/26 10:20:43;;;;;;;7.75;2.30;;;;;;;11.68;57.16;102147.22;3569286;40;20118;-59
2021/04/26 10:23:37;;;;;;;5.60;2.07;;;;;;;11.89;57.81;102150.16;3568856;40;20063;-60
2021/04/26 10:26:03;;;;;;;5.65;2.05;;;;;;;11.57;56.92;102147.13;3568573;40;20065;-59
2021/04/26 10:28:31;;;;;;;5.47;1.95;;;;;;;11.86;60.88;102139.59;3569463;40;20030;-60
2021/04/26 10:31:04;;;;;;;9.73;2.42;;;;;;;12.17;53.69;102142.75;3569983;40;20049;-61
2021/04/26 10:34:06;;;;;;;4.90;2.38;;;;;;;12.30;53.50;102141.84;3568490;40;20042;-59
2021/04/26 10:36:46;;;;;;;5.80;2.25;;;;;;;12.31;52.79;102127.34;3568271;40;20053;-60
2021/04/26 10:39:14;;;;;;;4.32;2.08;;;;;;;12.20;55.44;102130.88;3568860;40;20104;-61
2021/04/26 10:42:00;;;;;;;6.75;2.00;;;;;;;12.31;54.39;102121.94;3568406;40;20060;-61
2021/04/26 10:44:57;;;;;;;4.65;1.90;;;;;;;12.22;51.48;102120.81;3569697;40;21143;-62
2021/04/26 10:47:29;;;;;;;3.75;2.08;;;;;;;12.43;51.99;102113.78;3529414;40;20062;-62
2021/04/26 10:50:28;;;;;;;3.90;2.00;;;;;;;12.71;51.83;102113.50;3561439;40;20088;-60
2021/04/26 10:52:56;;;;;;;4.50;2.03;;;;;;;12.65;49.50;102106.75;3570849;40;20051;-60
2021/04/26 10:55:52;;;;;;;5.63;2.22;;;;;;;12.51;50.16;102102.38;3570318;40;20196;-59
2021/04/26 10:58:31;;;;;;;4.15;1.90;;;;;;;12.17;53.93;102099.56;3570726;40;20401;-61
2021/04/26 11:00:57;;;;;;;5.03;1.90;;;;;;;12.27;53.90;102099.75;3570560;40;20053;-60
2021/04/26 11:03:42;;;;;;;4.80;1.88;;;;;;;12.36;54.38;102087.38;3569720;40;20059;-61
2021/04/26 11:06:21;;;;;;;5.10;2.35;;;;;;;12.56;52.20;102081.31;3568963;40;20084;-62
2021/04/26 11:08:53;;;;;;;7.10;2.00;;;;;;;12.58;48.41;102081.19;3569192;40;20068;-61
2021/04/26 11:11:34;;;;;;;4.55;2.10;;;;;;;12.37;46.19;102083.72;3569783;40;20052;-59
2021/04/26 11:14:02;;;;;;;4.78;2.00;;;;;;;12.70;47.80;102082.91;3569841;40;20427;-59
2021/04/26 11:16:30;;;;;;;7.43;1.90;;;;;;;12.81;42.52;102079.41;3568804;40;20151;-59
2021/04/26 11:19:08;;;;;;;6.05;1.98;;;;;;;12.53;46.04;102073.44;3568118;40;20406;-59
2021/04/26 11:22:07;;;;;;;4.10;1.90;;;;;;;12.61;47.67;102072.84;3569805;40;20049;-60
2021/04/26 11:24:55;;;;;;;6.20;1.92;;;;;;;12.34;49.76;102063.22;3569470;40;20047;-61
2021/04/26 11:27:24;;;;;;;4.72;2.42;;;;;;;12.75;50.15;102055.53;3567868;40;20099;-61
2021/04/26 11:30:21;;;;;;;4.68;2.03;;;;;;;12.66;46.36;102062.56;3570833;40;20297;-59
2021/04/26 11:33:08;;;;;;;4.28;2.10;;;;;;;12.69;43.17;102053.31;3562704;40;20037;-62
2021/04/26 11:35:35;;;;;;;4.05;1.80;;;;;;;13.05;42.37;102054.09;3572230;40;20426;-60
2021/04/26 11:38:02;;;;;;;3.28;1.50;;;;;;;13.47;40.29;102043.50;3570261;40;20085;-60
2021/04/26 11:40:32;;;;;;;3.88;1.90;;;;;;;13.15;39.25;102046.97;3572075;40;20076;-62